LOT77M HLLB-DTTA
Flight info
| Callsign | LOT77M |
|---|---|
| Flight time | 1h 38m |
| Altitude | 30000 |
| Route | RIGEM1F RIGEM M622 GZO M978 SONAK UM978 DIDON |
| Aircraft | B738/M-SDE2E3FGHIRWXY/LB1 |
Departure
| Time | 2026-05-01 12:01 |
|---|---|
| Airport | Benina International Airport (HLLB) |
Arrival
| Time | 2026-05-01 13:39 |
|---|---|
| Airport | Tunis Carthage International Airport (DTTA) |
| Time | Latitude | Longitude | Altitude | Speed | Heading |
|---|---|---|---|---|---|
| 2026-05-01 11:39 | 32.08666 | 20.26827 | 413 ft | 0 kts | 209° |
| 2026-05-01 11:47 | 32.08672 | 20.26831 | 413 ft | 4 kts | 209° |
| 2026-05-01 11:47 | 32.08696 | 20.26846 | 411 ft | 4 kts | 205° |
| 2026-05-01 11:47 | 32.08721 | 20.26857 | 413 ft | 3 kts | 187° |
| 2026-05-01 11:48 | 32.08741 | 20.26855 | 412 ft | 4 kts | 117° |
| 2026-05-01 11:48 | 32.08743 | 20.26850 | 404 ft | 1 kts | 86° |
| 2026-05-01 11:54 | 32.08744 | 20.26872 | 413 ft | 6 kts | 86° |
| 2026-05-01 11:54 | 32.08749 | 20.26948 | 413 ft | 10 kts | 85° |
| 2026-05-01 11:54 | 32.08750 | 20.27032 | 413 ft | 10 kts | 99° |
| 2026-05-01 11:55 | 32.08712 | 20.27098 | 413 ft | 10 kts | 146° |
| 2026-05-01 11:55 | 32.08653 | 20.27139 | 413 ft | 10 kts | 149° |
| 2026-05-01 11:55 | 32.08596 | 20.27179 | 413 ft | 9 kts | 149° |
| 2026-05-01 11:55 | 32.08541 | 20.27217 | 413 ft | 9 kts | 149° |
| 2026-05-01 11:56 | 32.08486 | 20.27255 | 408 ft | 9 kts | 149° |
| 2026-05-01 11:56 | 32.08433 | 20.27292 | 413 ft | 9 kts | 149° |
| 2026-05-01 11:56 | 32.08382 | 20.27328 | 407 ft | 8 kts | 149° |
| 2026-05-01 11:56 | 32.08331 | 20.27359 | 413 ft | 8 kts | 155° |
| 2026-05-01 11:57 | 32.08280 | 20.27387 | 407 ft | 8 kts | 155° |
| 2026-05-01 11:57 | 32.08247 | 20.27406 | 413 ft | 8 kts | 151° |
| 2026-05-01 11:57 | 32.08186 | 20.27447 | 412 ft | 7 kts | 150° |
| 2026-05-01 11:57 | 32.08144 | 20.27482 | 413 ft | 7 kts | 135° |
| 2026-05-01 11:58 | 32.08129 | 20.27535 | 413 ft | 7 kts | 82° |
| 2026-05-01 11:58 | 32.08149 | 20.27588 | 406 ft | 7 kts | 61° |
| 2026-05-01 11:58 | 32.08199 | 20.27684 | 412 ft | 7 kts | 55° |
| 2026-05-01 11:59 | 32.08227 | 20.27728 | 412 ft | 7 kts | 43° |
| 2026-05-01 11:59 | 32.08268 | 20.27721 | 411 ft | 7 kts | 324° |
| 2026-05-01 11:59 | 32.08278 | 20.27714 | 412 ft | 0 kts | 327° |
| 2026-05-01 12:00 | 32.08311 | 20.27688 | 413 ft | 22 kts | 327° |
| 2026-05-01 12:00 | 32.09514 | 20.26882 | 457 ft | 166 kts | 330° |
| 2026-05-01 12:01 | 32.10535 | 20.26136 | 1303 ft | 170 kts | 328° |
| 2026-05-01 12:01 | 32.11602 | 20.25606 | 2369 ft | 170 kts | 341° |
| 2026-05-01 12:01 | 32.12787 | 20.25147 | 2742 ft | 196 kts | 332° |
| 2026-05-01 12:01 | 32.13727 | 20.23914 | 2928 ft | 216 kts | 289° |
| 2026-05-01 12:02 | 32.13813 | 20.22091 | 3194 ft | 234 kts | 272° |
| 2026-05-01 12:02 | 32.14333 | 20.20335 | 3791 ft | 231 kts | 309° |
| 2026-05-01 12:02 | 32.15485 | 20.18972 | 4390 ft | 236 kts | 314° |
| 2026-05-01 12:02 | 32.16662 | 20.17611 | 4991 ft | 241 kts | 313° |
| 2026-05-01 12:03 | 32.17883 | 20.16137 | 5362 ft | 258 kts | 311° |
| 2026-05-01 12:03 | 32.19123 | 20.14575 | 6059 ft | 265 kts | 310° |
| 2026-05-01 12:03 | 32.20372 | 20.12948 | 6974 ft | 266 kts | 309° |
| 2026-05-01 12:03 | 32.21599 | 20.11308 | 7835 ft | 267 kts | 309° |
| 2026-05-01 12:04 | 32.22809 | 20.09662 | 8634 ft | 270 kts | 308° |
| 2026-05-01 12:04 | 32.24042 | 20.07964 | 9468 ft | 272 kts | 308° |
| 2026-05-01 12:04 | 32.25285 | 20.06237 | 10241 ft | 277 kts | 308° |
| 2026-05-01 12:04 | 32.26574 | 20.04434 | 10513 ft | 299 kts | 308° |
| 2026-05-01 12:05 | 32.27952 | 20.02497 | 10705 ft | 323 kts | 308° |
| 2026-05-01 12:05 | 32.31002 | 19.98205 | 11507 ft | 350 kts | 308° |
| 2026-05-01 12:05 | 32.32563 | 19.96008 | 12244 ft | 351 kts | 308° |
| 2026-05-01 12:06 | 32.34146 | 19.93775 | 13002 ft | 353 kts | 308° |
| 2026-05-01 12:06 | 32.35722 | 19.91551 | 13709 ft | 356 kts | 308° |
| 2026-05-01 12:06 | 32.37328 | 19.89281 | 14345 ft | 359 kts | 308° |
| 2026-05-01 12:06 | 32.38922 | 19.87025 | 14975 ft | 361 kts | 308° |
| 2026-05-01 12:07 | 32.40511 | 19.84740 | 15611 ft | 363 kts | 307° |
| 2026-05-01 12:07 | 32.42114 | 19.82405 | 16240 ft | 365 kts | 307° |
| 2026-05-01 12:07 | 32.43723 | 19.80050 | 16871 ft | 367 kts | 307° |
| 2026-05-01 12:07 | 32.45321 | 19.77710 | 17463 ft | 370 kts | 307° |
| 2026-05-01 12:08 | 32.46955 | 19.75320 | 18053 ft | 373 kts | 306° |
| 2026-05-01 12:08 | 32.48574 | 19.72949 | 18580 ft | 375 kts | 306° |
| 2026-05-01 12:08 | 32.50224 | 19.70535 | 19074 ft | 377 kts | 306° |
| 2026-05-01 12:08 | 32.51327 | 19.68922 | 19400 ft | 379 kts | 306° |
| 2026-05-01 12:09 | 32.53544 | 19.65677 | 20038 ft | 383 kts | 306° |
| 2026-05-01 12:09 | 32.54668 | 19.64030 | 20367 ft | 385 kts | 306° |
| 2026-05-01 12:09 | 32.56918 | 19.60734 | 21013 ft | 388 kts | 306° |
| 2026-05-01 12:09 | 32.58051 | 19.59072 | 21325 ft | 390 kts | 306° |
| 2026-05-01 12:10 | 32.60328 | 19.55731 | 21936 ft | 393 kts | 306° |
| 2026-05-01 12:10 | 32.63218 | 19.51487 | 22661 ft | 398 kts | 306° |
| 2026-05-01 12:10 | 32.64956 | 19.48931 | 23084 ft | 401 kts | 306° |
| 2026-05-01 12:11 | 32.68463 | 19.43771 | 23873 ft | 405 kts | 306° |
| 2026-05-01 12:11 | 32.70237 | 19.41158 | 24278 ft | 406 kts | 306° |
| 2026-05-01 12:11 | 32.72016 | 19.38535 | 24693 ft | 406 kts | 306° |
| 2026-05-01 12:12 | 32.73790 | 19.35919 | 25110 ft | 406 kts | 305° |
| 2026-05-01 12:12 | 32.75547 | 19.33324 | 25489 ft | 407 kts | 305° |
| 2026-05-01 12:12 | 32.77331 | 19.30690 | 25857 ft | 408 kts | 305° |
| 2026-05-01 12:12 | 32.79096 | 19.28080 | 26206 ft | 409 kts | 305° |
| 2026-05-01 12:13 | 32.80891 | 19.25427 | 26584 ft | 409 kts | 305° |
| 2026-05-01 12:13 | 32.82678 | 19.22820 | 27094 ft | 406 kts | 305° |
| 2026-05-01 12:13 | 32.84465 | 19.20237 | 27693 ft | 401 kts | 305° |
| 2026-05-01 12:13 | 32.86226 | 19.17698 | 28289 ft | 397 kts | 304° |
| 2026-05-01 12:14 | 32.87986 | 19.15157 | 28824 ft | 394 kts | 304° |
| 2026-05-01 12:14 | 32.89725 | 19.12642 | 29314 ft | 392 kts | 304° |
| 2026-05-01 12:14 | 32.91441 | 19.10154 | 29778 ft | 391 kts | 304° |
| 2026-05-01 12:14 | 32.93170 | 19.07640 | 29995 ft | 393 kts | 303° |
| 2026-05-01 12:15 | 32.96624 | 19.02616 | 29996 ft | 390 kts | 303° |
| 2026-05-01 12:15 | 33.00046 | 18.97632 | 30011 ft | 389 kts | 303° |
| 2026-05-01 12:16 | 33.03465 | 18.92645 | 30009 ft | 389 kts | 303° |
| 2026-05-01 12:16 | 33.06881 | 18.87654 | 30006 ft | 390 kts | 303° |
| 2026-05-01 12:17 | 33.10310 | 18.82641 | 30008 ft | 390 kts | 303° |
| 2026-05-01 12:17 | 33.13741 | 18.77616 | 30010 ft | 390 kts | 303° |
| 2026-05-01 12:18 | 33.17150 | 18.72616 | 30009 ft | 390 kts | 303° |
| 2026-05-01 12:18 | 33.20597 | 18.67554 | 30008 ft | 391 kts | 303° |
| 2026-05-01 12:19 | 33.24021 | 18.62518 | 30016 ft | 392 kts | 303° |
| 2026-05-01 12:19 | 33.27456 | 18.57460 | 30015 ft | 393 kts | 303° |
| 2026-05-01 12:20 | 33.30894 | 18.52390 | 30015 ft | 394 kts | 303° |
| 2026-05-01 12:20 | 33.34336 | 18.47308 | 30016 ft | 395 kts | 303° |
| 2026-05-01 12:21 | 33.37785 | 18.42208 | 30021 ft | 396 kts | 303° |
| 2026-05-01 12:21 | 33.41251 | 18.37076 | 30020 ft | 397 kts | 303° |
| 2026-05-01 12:22 | 33.44709 | 18.31869 | 30023 ft | 398 kts | 302° |
| 2026-05-01 12:22 | 33.48123 | 18.26672 | 30023 ft | 399 kts | 302° |
| 2026-05-01 12:23 | 33.51562 | 18.21435 | 30025 ft | 400 kts | 302° |
| 2026-05-01 12:23 | 33.54991 | 18.16212 | 30029 ft | 402 kts | 303° |
| 2026-05-01 12:24 | 33.58466 | 18.10916 | 30034 ft | 403 kts | 303° |
| 2026-05-01 12:24 | 33.61916 | 18.05650 | 30034 ft | 404 kts | 303° |
| 2026-05-01 12:25 | 33.67137 | 17.97666 | 30033 ft | 405 kts | 303° |
| 2026-05-01 12:26 | 33.70614 | 17.92339 | 30026 ft | 406 kts | 303° |
| 2026-05-01 12:26 | 33.75837 | 17.84323 | 30037 ft | 407 kts | 303° |
| 2026-05-01 12:27 | 33.81054 | 17.76298 | 30040 ft | 408 kts | 303° |
| 2026-05-01 12:28 | 33.86299 | 17.68212 | 30047 ft | 409 kts | 303° |
| 2026-05-01 12:29 | 33.91556 | 17.60089 | 30040 ft | 410 kts | 303° |
| 2026-05-01 12:29 | 33.96791 | 17.51981 | 30051 ft | 410 kts | 303° |
| 2026-05-01 12:30 | 34.02026 | 17.43854 | 30047 ft | 410 kts | 303° |
| 2026-05-01 12:31 | 34.05525 | 17.38399 | 30051 ft | 410 kts | 303° |
| 2026-05-01 12:31 | 34.09006 | 17.32965 | 30050 ft | 410 kts | 303° |
| 2026-05-01 12:32 | 34.12489 | 17.27518 | 30051 ft | 410 kts | 303° |
| 2026-05-01 12:32 | 34.17721 | 17.19322 | 30051 ft | 410 kts | 304° |
| 2026-05-01 12:33 | 34.21184 | 17.13887 | 30056 ft | 410 kts | 304° |
| 2026-05-01 12:33 | 34.24663 | 17.08417 | 30052 ft | 410 kts | 304° |
| 2026-05-01 12:34 | 34.28136 | 17.02948 | 30063 ft | 410 kts | 304° |
| 2026-05-01 12:34 | 34.31592 | 16.97500 | 30059 ft | 410 kts | 304° |
| 2026-05-01 12:35 | 34.35081 | 16.92016 | 30060 ft | 410 kts | 304° |
| 2026-05-01 12:35 | 34.38582 | 16.86591 | 30061 ft | 410 kts | 304° |
| 2026-05-01 12:36 | 34.42097 | 16.81148 | 30061 ft | 411 kts | 304° |
| 2026-05-01 12:36 | 34.45611 | 16.75689 | 30063 ft | 411 kts | 304° |
| 2026-05-01 12:37 | 34.49116 | 16.70229 | 30063 ft | 411 kts | 304° |
| 2026-05-01 12:37 | 34.52613 | 16.64772 | 30068 ft | 411 kts | 304° |
| 2026-05-01 12:38 | 34.56135 | 16.59267 | 30065 ft | 411 kts | 304° |
| 2026-05-01 12:38 | 34.59624 | 16.53805 | 30071 ft | 410 kts | 304° |
| 2026-05-01 12:39 | 34.63104 | 16.48349 | 30075 ft | 410 kts | 304° |
| 2026-05-01 12:39 | 34.66599 | 16.42860 | 30069 ft | 410 kts | 304° |
| 2026-05-01 12:40 | 34.70089 | 16.37371 | 30073 ft | 410 kts | 304° |
| 2026-05-01 12:40 | 34.73574 | 16.31881 | 30072 ft | 410 kts | 304° |
| 2026-05-01 12:41 | 34.77066 | 16.26373 | 30076 ft | 410 kts | 304° |
| 2026-05-01 12:41 | 34.80549 | 16.20869 | 30076 ft | 410 kts | 304° |
| 2026-05-01 12:42 | 34.84015 | 16.15384 | 30074 ft | 409 kts | 304° |
| 2026-05-01 12:42 | 34.87466 | 16.09914 | 30082 ft | 409 kts | 304° |
| 2026-05-01 12:43 | 34.90926 | 16.04422 | 30078 ft | 408 kts | 304° |
| 2026-05-01 12:43 | 34.94385 | 15.98923 | 30083 ft | 408 kts | 304° |
| 2026-05-01 12:44 | 34.97825 | 15.93446 | 30083 ft | 407 kts | 304° |
| 2026-05-01 12:45 | 35.04701 | 15.82470 | 30086 ft | 406 kts | 304° |
| 2026-05-01 12:45 | 35.08126 | 15.76990 | 30090 ft | 406 kts | 304° |
| 2026-05-01 12:46 | 35.11576 | 15.71458 | 30099 ft | 417 kts | 304° |
| 2026-05-01 12:46 | 35.15157 | 15.65706 | 30099 ft | 429 kts | 304° |
| 2026-05-01 12:47 | 35.18797 | 15.59854 | 30087 ft | 434 kts | 304° |
| 2026-05-01 12:47 | 35.22432 | 15.54007 | 30084 ft | 432 kts | 304° |
| 2026-05-01 12:48 | 35.26057 | 15.48162 | 30089 ft | 431 kts | 304° |
| 2026-05-01 12:48 | 35.29669 | 15.42326 | 30134 ft | 434 kts | 304° |
| 2026-05-01 12:49 | 35.33332 | 15.36396 | 30099 ft | 434 kts | 304° |
| 2026-05-01 12:49 | 35.36931 | 15.30565 | 30105 ft | 429 kts | 304° |
| 2026-05-01 12:50 | 35.38741 | 15.27626 | 30237 ft | 433 kts | 304° |
| 2026-05-01 12:50 | 35.40544 | 15.24696 | 30534 ft | 432 kts | 304° |
| 2026-05-01 12:50 | 35.42354 | 15.21755 | 30897 ft | 429 kts | 304° |
| 2026-05-01 12:50 | 35.44131 | 15.18863 | 31280 ft | 427 kts | 303° |
| 2026-05-01 12:51 | 35.45915 | 15.15960 | 31667 ft | 425 kts | 303° |
| 2026-05-01 12:51 | 35.47698 | 15.13053 | 32007 ft | 424 kts | 303° |
| 2026-05-01 12:51 | 35.51245 | 15.07264 | 32637 ft | 422 kts | 303° |
| 2026-05-01 12:52 | 35.53000 | 15.04396 | 32980 ft | 421 kts | 303° |
| 2026-05-01 12:52 | 35.56501 | 14.98668 | 33628 ft | 419 kts | 303° |
| 2026-05-01 12:52 | 35.58259 | 14.95787 | 33939 ft | 418 kts | 303° |
| 2026-05-01 12:53 | 35.61737 | 14.90083 | 34489 ft | 417 kts | 302° |
| 2026-05-01 12:53 | 35.63458 | 14.87257 | 34717 ft | 417 kts | 303° |
| 2026-05-01 12:53 | 35.65197 | 14.84399 | 34961 ft | 416 kts | 303° |
| 2026-05-01 12:54 | 35.66937 | 14.81537 | 35221 ft | 415 kts | 303° |
| 2026-05-01 12:54 | 35.70381 | 14.75865 | 35689 ft | 415 kts | 303° |
| 2026-05-01 12:54 | 35.72102 | 14.73028 | 35917 ft | 414 kts | 303° |
| 2026-05-01 12:55 | 35.75533 | 14.67362 | 36374 ft | 413 kts | 303° |
| 2026-05-01 12:55 | 35.77262 | 14.64505 | 36579 ft | 413 kts | 302° |
| 2026-05-01 12:55 | 35.78984 | 14.61656 | 36788 ft | 413 kts | 302° |
| 2026-05-01 12:56 | 35.80684 | 14.58840 | 37002 ft | 413 kts | 302° |
| 2026-05-01 12:56 | 35.82390 | 14.56013 | 37214 ft | 412 kts | 302° |
| 2026-05-01 12:56 | 35.84110 | 14.53162 | 37413 ft | 412 kts | 302° |
| 2026-05-01 12:56 | 35.85804 | 14.50349 | 37601 ft | 412 kts | 302° |
| 2026-05-01 12:57 | 35.87513 | 14.47511 | 37803 ft | 412 kts | 302° |
| 2026-05-01 12:57 | 35.90928 | 14.41831 | 38131 ft | 411 kts | 302° |
| 2026-05-01 12:57 | 35.92641 | 14.38976 | 38119 ft | 413 kts | 302° |
| 2026-05-01 12:58 | 35.96045 | 14.33301 | 38126 ft | 412 kts | 302° |
| 2026-05-01 12:59 | 36.01115 | 14.24830 | 38120 ft | 409 kts | 302° |
| 2026-05-01 12:59 | 36.04914 | 14.15585 | 38127 ft | 399 kts | 284° |
| 2026-05-01 13:00 | 36.06913 | 14.06797 | 38117 ft | 399 kts | 284° |
| 2026-05-01 13:01 | 36.09434 | 13.95783 | 38119 ft | 401 kts | 284° |
| 2026-05-01 13:02 | 36.11725 | 13.85829 | 38116 ft | 403 kts | 284° |
| 2026-05-01 13:07 | 36.28289 | 13.12622 | 38105 ft | 409 kts | 284° |
| 2026-05-01 13:08 | 36.29804 | 13.05784 | 38128 ft | 408 kts | 284° |
| 2026-05-01 13:08 | 36.31300 | 12.99003 | 38119 ft | 408 kts | 284° |
| 2026-05-01 13:09 | 36.32789 | 12.92221 | 38124 ft | 408 kts | 284° |
| 2026-05-01 13:09 | 36.34284 | 12.85417 | 38124 ft | 408 kts | 284° |
| 2026-05-01 13:10 | 36.35774 | 12.78621 | 38108 ft | 408 kts | 284° |
| 2026-05-01 13:10 | 36.37260 | 12.71819 | 38132 ft | 408 kts | 284° |
| 2026-05-01 13:11 | 36.38741 | 12.65025 | 38120 ft | 408 kts | 284° |
| 2026-05-01 13:11 | 36.39466 | 12.61695 | 38100 ft | 396 kts | 284° |
| 2026-05-01 13:11 | 36.40174 | 12.58441 | 38117 ft | 380 kts | 284° |
| 2026-05-01 13:11 | 36.40844 | 12.55356 | 38092 ft | 365 kts | 283° |
| 2026-05-01 13:12 | 36.41501 | 12.52332 | 38131 ft | 361 kts | 284° |
| 2026-05-01 13:12 | 36.42817 | 12.46253 | 38144 ft | 369 kts | 284° |
| 2026-05-01 13:12 | 36.43479 | 12.43180 | 37927 ft | 374 kts | 284° |
| 2026-05-01 13:13 | 36.44158 | 12.40024 | 37205 ft | 378 kts | 284° |
| 2026-05-01 13:13 | 36.44838 | 12.36857 | 36262 ft | 385 kts | 283° |
| 2026-05-01 13:13 | 36.45540 | 12.33575 | 35187 ft | 395 kts | 284° |
| 2026-05-01 13:13 | 36.46248 | 12.30253 | 34302 ft | 403 kts | 284° |
| 2026-05-01 13:14 | 36.46966 | 12.26908 | 33673 ft | 402 kts | 284° |
| 2026-05-01 13:14 | 36.47687 | 12.23552 | 33221 ft | 397 kts | 284° |
| 2026-05-01 13:14 | 36.48385 | 12.20295 | 32776 ft | 392 kts | 284° |
| 2026-05-01 13:14 | 36.49085 | 12.17012 | 32269 ft | 389 kts | 284° |
| 2026-05-01 13:15 | 36.49781 | 12.13739 | 31421 ft | 394 kts | 284° |
| 2026-05-01 13:15 | 36.50463 | 12.10453 | 30588 ft | 398 kts | 284° |
| 2026-05-01 13:15 | 36.51119 | 12.07110 | 29667 ft | 394 kts | 283° |
| 2026-05-01 13:15 | 36.51746 | 12.03837 | 28732 ft | 390 kts | 283° |
| 2026-05-01 13:16 | 36.52371 | 12.00556 | 27810 ft | 386 kts | 283° |
| 2026-05-01 13:16 | 36.52984 | 11.97338 | 27411 ft | 377 kts | 283° |
| 2026-05-01 13:16 | 36.53584 | 11.94203 | 26909 ft | 373 kts | 283° |
| 2026-05-01 13:17 | 36.55362 | 11.84927 | 25566 ft | 362 kts | 283° |
| 2026-05-01 13:17 | 36.55947 | 11.81873 | 25124 ft | 359 kts | 283° |
| 2026-05-01 13:18 | 36.57092 | 11.75887 | 24261 ft | 354 kts | 283° |
| 2026-05-01 13:18 | 36.57654 | 11.72938 | 23839 ft | 352 kts | 282° |
| 2026-05-01 13:18 | 36.58218 | 11.69961 | 23359 ft | 349 kts | 282° |
| 2026-05-01 13:18 | 36.58769 | 11.67052 | 22885 ft | 347 kts | 282° |
| 2026-05-01 13:19 | 36.59324 | 11.64121 | 22433 ft | 344 kts | 283° |
| 2026-05-01 13:19 | 36.59871 | 11.61258 | 22024 ft | 340 kts | 283° |
| 2026-05-01 13:19 | 36.60947 | 11.55588 | 21191 ft | 335 kts | 283° |
| 2026-05-01 13:20 | 36.61479 | 11.52769 | 20787 ft | 332 kts | 283° |
| 2026-05-01 13:20 | 36.62000 | 11.49983 | 20371 ft | 331 kts | 283° |
| 2026-05-01 13:20 | 36.62524 | 11.47189 | 19988 ft | 328 kts | 283° |
| 2026-05-01 13:21 | 36.63553 | 11.41704 | 19216 ft | 325 kts | 283° |
| 2026-05-01 13:21 | 36.64061 | 11.38990 | 18834 ft | 323 kts | 284° |
| 2026-05-01 13:21 | 36.64570 | 11.36264 | 18445 ft | 322 kts | 284° |
| 2026-05-01 13:21 | 36.65082 | 11.33516 | 17994 ft | 322 kts | 284° |
| 2026-05-01 13:22 | 36.65580 | 11.30838 | 17585 ft | 320 kts | 284° |
| 2026-05-01 13:22 | 36.66083 | 11.28128 | 17177 ft | 318 kts | 284° |
| 2026-05-01 13:22 | 36.66576 | 11.25473 | 16795 ft | 316 kts | 284° |
| 2026-05-01 13:22 | 36.67072 | 11.22797 | 16416 ft | 314 kts | 284° |
| 2026-05-01 13:23 | 36.67556 | 11.20176 | 16049 ft | 312 kts | 284° |
| 2026-05-01 13:23 | 36.68043 | 11.17545 | 15674 ft | 311 kts | 284° |
| 2026-05-01 13:23 | 36.68531 | 11.14901 | 15088 ft | 316 kts | 284° |
| 2026-05-01 13:23 | 36.69030 | 11.12199 | 14530 ft | 321 kts | 284° |
| 2026-05-01 13:24 | 36.69525 | 11.09510 | 14091 ft | 321 kts | 285° |
| 2026-05-01 13:24 | 36.70028 | 11.06773 | 13667 ft | 320 kts | 285° |
| 2026-05-01 13:24 | 36.70518 | 11.04086 | 13248 ft | 318 kts | 284° |
| 2026-05-01 13:25 | 36.70811 | 10.98674 | 12713 ft | 309 kts | 273° |
| 2026-05-01 13:25 | 36.70810 | 10.95992 | 12366 ft | 307 kts | 272° |
| 2026-05-01 13:25 | 36.70808 | 10.93366 | 12008 ft | 305 kts | 272° |
| 2026-05-01 13:25 | 36.70809 | 10.90710 | 11642 ft | 304 kts | 273° |
| 2026-05-01 13:26 | 36.70815 | 10.88109 | 11280 ft | 303 kts | 273° |
| 2026-05-01 13:26 | 36.70825 | 10.85462 | 10913 ft | 302 kts | 273° |
| 2026-05-01 13:26 | 36.70836 | 10.82878 | 10651 ft | 297 kts | 273° |
| 2026-05-01 13:26 | 36.70847 | 10.80338 | 10514 ft | 289 kts | 273° |
| 2026-05-01 13:27 | 36.70858 | 10.77856 | 10373 ft | 281 kts | 273° |
| 2026-05-01 13:27 | 36.70870 | 10.75474 | 10251 ft | 273 kts | 273° |
| 2026-05-01 13:27 | 36.70892 | 10.70830 | 9825 ft | 266 kts | 273° |
| 2026-05-01 13:28 | 36.70915 | 10.66240 | 9242 ft | 263 kts | 273° |
| 2026-05-01 13:28 | 36.70925 | 10.63979 | 8955 ft | 262 kts | 273° |
| 2026-05-01 13:29 | 36.70943 | 10.59443 | 8394 ft | 261 kts | 273° |
| 2026-05-01 13:29 | 36.70961 | 10.54913 | 7822 ft | 260 kts | 273° |
| 2026-05-01 13:30 | 36.71963 | 10.46187 | 6518 ft | 267 kts | 262° |
| 2026-05-01 13:31 | 36.69918 | 10.42375 | 5951 ft | 270 kts | 226° |
| 2026-05-01 13:31 | 36.66448 | 10.36929 | 5146 ft | 266 kts | 241° |
| 2026-05-01 13:32 | 36.64871 | 10.32798 | 4576 ft | 263 kts | 250° |
| 2026-05-01 13:33 | 36.63578 | 10.26264 | 3966 ft | 251 kts | 264° |
| 2026-05-01 13:33 | 36.63418 | 10.22018 | 3774 ft | 239 kts | 272° |
| 2026-05-01 13:34 | 36.64780 | 10.18626 | 3601 ft | 215 kts | 329° |
| 2026-05-01 13:34 | 36.67456 | 10.17947 | 3284 ft | 192 kts | 10° |
| 2026-05-01 13:35 | 36.70008 | 10.18571 | 2799 ft | 184 kts | 14° |
| 2026-05-01 13:35 | 36.71244 | 10.18908 | 2545 ft | 179 kts | 14° |
| 2026-05-01 13:35 | 36.73676 | 10.19574 | 2059 ft | 181 kts | 14° |
| 2026-05-01 13:36 | 36.74907 | 10.19911 | 1828 ft | 178 kts | 14° |
| 2026-05-01 13:36 | 36.76091 | 10.20234 | 1625 ft | 175 kts | 15° |
| 2026-05-01 13:36 | 36.78394 | 10.20867 | 1143 ft | 159 kts | 14° |
| 2026-05-01 13:37 | 36.79441 | 10.21153 | 935 ft | 147 kts | 14° |
| 2026-05-01 13:37 | 36.80426 | 10.21422 | 754 ft | 145 kts | 13° |
| 2026-05-01 13:37 | 36.81427 | 10.21696 | 561 ft | 149 kts | 12° |
| 2026-05-01 13:37 | 36.82426 | 10.21968 | 351 ft | 145 kts | 13° |
| 2026-05-01 13:38 | 36.84318 | 10.22463 | 30 ft | 133 kts | 13° |
| 2026-05-01 13:38 | 36.85094 | 10.22694 | 34 ft | 98 kts | 14° |
| 2026-05-01 13:38 | 36.85708 | 10.22860 | 29 ft | 84 kts | 12° |
| 2026-05-01 13:39 | 36.86230 | 10.23005 | 30 ft | 65 kts | 13° |
| 2026-05-01 13:39 | 36.86584 | 10.23099 | 30 ft | 47 kts | 12° |
| 2026-05-01 13:39 | 36.86777 | 10.23018 | 30 ft | 27 kts | 289° |
| 2026-05-01 13:39 | 36.86780 | 10.22993 | 30 ft | 0 kts | 267° |
| 2026-05-01 13:41 | 36.86780 | 10.22989 | 30 ft | 2 kts | 267° |
| 2026-05-01 13:41 | 36.86778 | 10.22955 | 29 ft | 4 kts | 265° |
| 2026-05-01 13:42 | 36.86767 | 10.22916 | 28 ft | 7 kts | 238° |
| 2026-05-01 13:42 | 36.86713 | 10.22863 | 29 ft | 14 kts | 199° |
| 2026-05-01 13:42 | 36.86613 | 10.22833 | 29 ft | 15 kts | 192° |
| 2026-05-01 13:42 | 36.86511 | 10.22806 | 30 ft | 15 kts | 192° |
| 2026-05-01 13:43 | 36.86414 | 10.22781 | 30 ft | 14 kts | 192° |
| 2026-05-01 13:43 | 36.86301 | 10.22751 | 30 ft | 20 kts | 192° |
| 2026-05-01 13:43 | 36.86157 | 10.22708 | 29 ft | 22 kts | 192° |
| 2026-05-01 13:43 | 36.86007 | 10.22670 | 29 ft | 21 kts | 192° |
| 2026-05-01 13:44 | 36.85838 | 10.22623 | 29 ft | 33 kts | 192° |
| 2026-05-01 13:44 | 36.85611 | 10.22564 | 29 ft | 33 kts | 192° |
| 2026-05-01 13:44 | 36.85396 | 10.22504 | 30 ft | 31 kts | 191° |
| 2026-05-01 13:44 | 36.85194 | 10.22447 | 34 ft | 29 kts | 192° |
| 2026-05-01 13:45 | 36.85015 | 10.22398 | 30 ft | 26 kts | 189° |
| 2026-05-01 13:45 | 36.84877 | 10.22352 | 30 ft | 16 kts | 224° |
| 2026-05-01 13:45 | 36.84884 | 10.22225 | 29 ft | 15 kts | 280° |
| 2026-05-01 13:45 | 36.84845 | 10.22124 | 29 ft | 15 kts | 203° |
| 2026-05-01 13:46 | 36.84800 | 10.22022 | 29 ft | 13 kts | 277° |
| 2026-05-01 13:46 | 36.84821 | 10.21931 | 29 ft | 0 kts | 282° |